To NAV CANADA Home Page Login to a new session Search on AWWS site Feedback and Comments Disclaimer Vers la page française équivalente Tips FAQ What's new on the site To the Forecasts and Observations / NOTAM section To "File a Flight Plan" website Publications and other links Update of the User's profile FIC Telephone Numbers My Weather Data Folder Route Weather Data Regional Weather Data Local Weather Data To the Forecasts and Observations / NOTAM section
Request Generated 04/26/2015 at 17:08:19 UTC . Weather information available at that time is displayed.

METAR/TAF

LA GRANDE-4/QC    (show WxCam)

METAR CYAH 261700Z AUTO 05015G21KT 9SM OVC031 06/M01 A3002 RMK
SLP182=
METAR CYAH 261600Z AUTO 06013G21KT 9SM OVC031 06/M01 A3002 RMK
SLP181=
METAR CYAH 261500Z AUTO 06015G22KT 9SM FEW040 06/M01 A3002 RMK
SLP180=

TAF AMD CYAH 261344Z 2613/2621 05010G20KT P6SM SCT015 OVC040 TEMPO
2613/2616 5SM -SNRA BR OVC015
BECMG 2613/2615 06015G25KT
FM261600 07020G30KT P6SM OVC025 TEMPO 2616/2621 5SM -RA BR OVC020
RMK FCST BASED ON AUTO OBS. NXT FCST BY 261800Z=
Your time UTC time
Weather data provided by Environment Canada and NAV CANADA